Cochranton, PA (16314)

Sagat: 6:21 AM EDT Sene: Aprel 25, 2017 (GMT -0400)
Cochranton PA | | Change Station

Elev 1056 ft 41.52 °N, 80.05 °W | Updated 4 seconds ago

Ýagysly
Ýagysly
54.0 ° F
Feels Like 54.0 ° F
N
0.0
Ýel Üýtgäp Durýan Ýel from DG
Gusts 0.0 mps

Su Gün
High -- | Low -- ° F
--% Chance of Precip.
Yesterday
High -- | Low -- ° F
Precip. -- duým (inlis birl.)
Basys 29.91 duým (inlis birl.)
Görüs Uzaklygy 10.0 mil
Clouds Ýapyk Howaly 8000 ft
Çyglylyk 41 ° F
Ygal 61%
Rainfall 0.00 duým (inlis birl.)
Snow Depth Not available.
6:25 AM 8:11 PM
Waning Crescent, 2% visible
METAR KGKJ 250953Z AUTO VRB05KT 10SM -RA OVC080 11/04 A2992 RMK AO2 RAB30 SLP127 P0000 T01110044 TSNO
Basys 29.91 duým (inlis birl.)
Görüs Uzaklygy 10.0 mil
Clouds Ýapyk Howaly 8000 ft
Çyglylyk 41 ° F
Ygal 61%
Rainfall 0.00 duým (inlis birl.)
Snow Depth Not available.
6:25 AM 8:11 PM
Waning Crescent, 2% visible
METAR KGKJ 250953Z AUTO VRB05KT 10SM -RA OVC080 11/04 A2992 RMK AO2 RAB30 SLP127 P0000 T01110044 TSNO

Get Severe Weather Alerts

Thanks for signing up!

Be on the lookout for a verification email in your inbox.

You'll start receiving the daily forecast at 8 AM.

×

10-Day Weather Forecast

Almanac

Astronomy

Apr. 25, 2017 Rise Set
Actual Time
Civil Twilight
Nautical Twilight
Astronomical Twilight
Length Of Visible Light
Length of Day
Tomorrow will be .
, % of the Moon is Illuminated

Today's Extremes

State Highs State Lows

Community

WunderPhotos

WunderBlog® & News

Nearby

Air Quality

  Air Quality AQ Index Pollutant
Not available.

Gar çunlygy

Station Depth Elevation

Earthquake Activity

Säher Distance Mag. Time & Date
Minimum magnitude displayed is 2.5.

Coastal Water Temperatures

Säheri Temperatura

Stations

Nearby Weather Stations

Station Location Ýagdaý Ýelin baglylygy bilen temperatura Çyglylyk Ygal Ýel Precip. Elev Täzelendi Type
                   

Watches & Warnings

There are currently no watches in effect.